Time;durP1;ratioP1;P1;durP2;ratioP2;P2;SDS_P1;SDS_P2;PMS_P1;PMS_P2;Temp;Humidity;BMP_temperature;BMP_pressure;BME280_temperature;BME280_humidity;BME280_pressure;Samples;Min_cycle;Max_cycle;Signal;HPM_P1;HPM_P2
2022/01/01 00:00:53;;;;;;;4.00;2.67;;;;;;;11.20;95.09;100585.30;1714393;83;21103;-81
2022/01/01 00:03:20;;;;;;;4.37;2.92;;;;;;;11.20;95.06;100586.61;1707709;83;21443;-74
2022/01/01 00:05:47;;;;;;;4.22;2.98;;;;;;;11.22;95.12;100587.38;1707356;83;21057;-76
2022/01/01 00:08:16;;;;;;;4.85;3.40;;;;;;;11.23;95.06;100594.83;1710632;83;21055;-74
2022/01/01 00:10:43;;;;;;;4.87;3.80;;;;;;;11.24;95.13;100597.84;1700931;83;21155;-75
2022/01/01 00:13:10;;;;;;;6.77;4.00;;;;;;;11.23;95.03;100603.55;1699446;83;21057;-74
2022/01/01 00:15:37;;;;;;;4.62;3.72;;;;;;;11.23;95.04;100606.17;1699897;84;21531;-75
2022/01/01 00:18:04;;;;;;;5.47;3.62;;;;;;;11.24;95.09;100610.95;1695914;83;20955;-75
2022/01/01 00:20:31;;;;;;;4.25;3.20;;;;;;;11.23;95.02;100621.91;1675382;83;21579;-75
2022/01/01 00:22:58;;;;;;;4.25;3.40;;;;;;;11.25;95.11;100619.22;1701969;84;21122;-75
2022/01/01 00:25:25;;;;;;;3.85;2.83;;;;;;;11.27;95.10;100622.66;1702317;84;21018;-75
2022/01/01 00:27:53;;;;;;;3.98;3.15;;;;;;;11.26;95.06;100614.39;1713541;83;21493;-76
2022/01/01 00:30:20;;;;;;;3.90;3.00;;;;;;;11.27;95.02;100615.63;1711324;83;21031;-75
2022/01/01 00:32:48;;;;;;;3.23;2.70;;;;;;;11.27;94.99;100619.56;1710656;83;21028;-74
2022/01/01 00:35:15;;;;;;;5.00;3.10;;;;;;;11.26;94.95;100615.24;1709561;83;21133;-75
2022/01/01 00:37:42;;;;;;;3.80;2.80;;;;;;;11.27;94.98;100623.96;1704001;83;21584;-75
2022/01/01 00:40:10;;;;;;;3.30;2.73;;;;;;;11.26;94.99;100623.11;1705117;84;21138;-75
2022/01/01 00:42:37;;;;;;;4.58;2.87;;;;;;;11.28;95.03;100628.28;1705344;84;21607;-74
2022/01/01 00:45:05;;;;;;;4.40;2.75;;;;;;;11.29;95.01;100630.02;1717202;83;21097;-76
2022/01/01 00:47:32;;;;;;;3.65;2.75;;;;;;;11.30;94.99;100635.66;1705450;84;21875;-74
2022/01/01 00:49:59;;;;;;;4.62;2.70;;;;;;;11.30;94.98;100630.41;1705481;83;21065;-74
2022/01/01 00:52:26;;;;;;;4.47;2.72;;;;;;;11.30;94.99;100637.81;1705290;84;21026;-75
2022/01/01 00:54:53;;;;;;;4.77;3.23;;;;;;;11.31;94.94;100643.48;1705432;82;21078;-76
2022/01/01 00:57:23;;;;;;;3.10;2.70;;;;;;;11.31;94.95;100654.45;1705366;84;21019;-74
2022/01/01 00:59:50;;;;;;;3.95;3.20;;;;;;;11.31;94.98;100652.67;1705759;83;27506;-75
2022/01/01 01:02:17;;;;;;;5.20;3.47;;;;;;;11.31;94.97;100651.36;1705162;84;21284;-74
2022/01/01 01:04:44;;;;;;;6.15;2.90;;;;;;;11.30;94.98;100660.58;1705445;83;21055;-75
2022/01/01 01:07:12;;;;;;;6.47;3.12;;;;;;;11.28;94.92;100654.09;1705377;84;21117;-75
2022/01/01 01:09:39;;;;;;;5.28;3.25;;;;;;;11.28;94.91;100659.77;1700425;83;21276;-76
2022/01/01 01:12:06;;;;;;;4.93;3.60;;;;;;;11.27;94.99;100660.70;1666729;85;21117;-75
2022/01/01 01:14:40;;;;;;;6.12;4.47;;;;;;;11.27;95.01;100680.38;1670580;85;21046;-74
2022/01/01 01:17:03;;;;;;;3.80;3.27;;;;;;;11.26;94.97;100675.59;1671161;85;21075;-76
2022/01/01 01:19:30;;;;;;;5.72;3.70;;;;;;;11.24;94.99;100668.22;1670609;85;21491;-75
2022/01/01 01:21:57;;;;;;;4.62;3.65;;;;;;;11.24;95.02;100669.99;1670775;85;21055;-76
2022/01/01 01:24:25;;;;;;;5.12;3.75;;;;;;;11.23;95.03;100669.61;1671178;85;21124;-75
2022/01/01 01:27:00;;;;;;;4.17;3.58;;;;;;;11.21;95.04;100670.95;1671528;84;21035;-75
2022/01/01 01:29:24;;;;;;;5.58;4.00;;;;;;;11.20;95.09;100668.41;1669648;85;21094;-75
2022/01/01 01:31:51;;;;;;;5.33;4.05;;;;;;;11.19;95.11;100676.70;1670042;84;21007;-75
2022/01/01 01:34:18;;;;;;;7.42;4.03;;;;;;;11.22;95.17;100679.67;1670887;84;21113;-75
2022/01/01 01:36:45;;;;;;;5.33;4.00;;;;;;;11.22;95.16;100678.37;1667095;86;21110;-74
2022/01/01 01:39:12;;;;;;;4.47;3.47;;;;;;;11.25;95.22;100690.95;1667245;86;21060;-76
2022/01/01 01:41:42;;;;;;;5.45;3.62;;;;;;;11.26;95.17;100687.40;1669479;84;21035;-75
2022/01/01 01:44:30;;;;;;;6.17;3.87;;;;;;;11.26;95.12;100688.71;1670181;85;21051;-75
2022/01/01 01:47:00;;;;;;;6.60;4.20;;;;;;;11.28;95.10;100688.64;1694663;84;21046;-75
2022/01/01 01:49:27;;;;;;;5.55;4.30;;;;;;;11.26;95.00;100690.02;1703878;84;21153;-75
2022/01/01 01:51:54;;;;;;;6.15;3.98;;;;;;;11.26;95.06;100703.14;1678066;84;21027;-75
2022/01/01 01:54:21;;;;;;;7.25;4.70;;;;;;;11.25;95.04;100696.20;1714336;83;21564;-75
2022/01/01 01:56:49;;;;;;;6.50;4.97;;;;;;;11.23;94.99;100711.13;1708573;83;21455;-74
2022/01/01 01:59:16;;;;;;;6.05;4.25;;;;;;;11.24;95.01;100698.86;1702579;83;21038;-76
2022/01/01 02:01:43;;;;;;;7.78;5.75;;;;;;;11.24;95.12;100705.41;1667786;84;21384;-76
2022/01/01 02:04:10;;;;;;;7.20;5.30;;;;;;;11.23;95.04;100699.78;1668867;86;21023;-76
2022/01/01 02:06:40;;;;;;;7.53;5.42;;;;;;;11.22;95.13;100708.08;1669151;86;21081;-75
2022/01/01 02:09:11;;;;;;;7.37;5.20;;;;;;;11.19;95.08;100701.63;1691121;84;21043;-76
2022/01/01 02:11:39;;;;;;;8.58;5.90;;;;;;;11.16;95.14;100710.92;1678340;85;21050;-75
2022/01/01 02:14:16;;;;;;;6.55;5.67;;;;;;;11.13;95.22;100707.95;1667287;86;21854;-76
2022/01/01 02:19:26;;;;;;;6.30;5.35;;;;;;;11.07;95.32;100711.25;1657109;85;21126;-76
2022/01/01 02:21:58;;;;;;;8.25;6.45;;;;;;;11.04;95.41;100716.14;1637443;87;21527;-75
2022/01/01 02:24:27;;;;;;;8.73;5.87;;;;;;;11.00;95.47;100717.17;1643185;87;21069;-76
2022/01/01 02:26:53;;;;;;;8.40;5.90;;;;;;;10.96;95.55;100714.23;1657488;85;21150;-76
2022/01/01 02:29:20;;;;;;;7.00;5.97;;;;;;;10.93;95.72;100712.56;1669715;86;21774;-76
2022/01/01 02:31:50;;;;;;;7.27;5.67;;;;;;;10.91;95.74;100718.31;1670988;84;21090;-76
2022/01/01 02:34:18;;;;;;;6.57;5.10;;;;;;;10.90;95.84;100722.31;1704465;83;21077;-76
2022/01/01 02:36:47;;;;;;;6.03;5.10;;;;;;;10.88;95.91;100727.59;1707392;84;21030;-75
2022/01/01 02:39:19;;;;;;;6.15;5.25;;;;;;;10.85;96.00;100736.88;1703703;84;21060;-75
2022/01/01 02:41:50;;;;;;;6.93;4.67;;;;;;;10.83;96.19;100733.44;1701921;83;21038;-76
2022/01/01 02:44:20;;;;;;;7.07;5.70;;;;;;;10.81;96.25;100733.96;1702050;83;21381;-75
2022/01/01 02:46:48;;;;;;;6.92;5.45;;;;;;;10.80;96.38;100736.16;1698905;83;21543;-75
2022/01/01 02:49:15;;;;;;;6.17;5.17;;;;;;;10.80;96.49;100741.86;1703762;84;21026;-75
2022/01/01 02:51:42;;;;;;;6.45;5.00;;;;;;;10.79;96.53;100742.33;1702650;83;21937;-76
2022/01/01 02:54:09;;;;;;;6.67;5.53;;;;;;;10.78;96.59;100735.80;1669903;85;21039;-75
2022/01/01 02:56:37;;;;;;;5.53;4.92;;;;;;;10.78;96.78;100740.62;1706681;83;21093;-76
2022/01/01 02:59:04;;;;;;;6.42;5.17;;;;;;;10.78;96.79;100740.62;1672647;85;21067;-78
2022/01/01 03:01:31;;;;;;;6.20;4.90;;;;;;;10.77;96.88;100741.51;1707324;83;21050;-76
2022/01/01 03:04:01;;;;;;;5.87;4.78;;;;;;;10.75;96.94;100757.73;1702026;84;21189;-76
2022/01/01 03:06:28;;;;;;;5.67;4.80;;;;;;;10.75;97.00;100749.02;1702538;84;21011;-75
2022/01/01 03:08:56;;;;;;;5.40;4.40;;;;;;;10.73;97.00;100749.55;1701863;83;21448;-76
2022/01/01 03:11:24;;;;;;;4.90;4.33;;;;;;;10.71;96.96;100753.52;1701828;84;21082;-76
2022/01/01 03:13:51;;;;;;;6.33;4.60;;;;;;;10.70;97.09;100757.05;1699411;83;21054;-76
2022/01/01 03:16:18;;;;;;;6.75;4.67;;;;;;;10.68;97.07;100752.30;1667798;84;21215;-76
2022/01/01 03:18:45;;;;;;;4.85;3.45;;;;;;;10.68;97.11;100762.33;1680657;84;21080;-77
2022/01/01 03:21:13;;;;;;;4.63;3.90;;;;;;;10.67;97.27;100755.84;1680906;85;21029;-75
2022/01/01 03:23:39;;;;;;;4.17;3.70;;;;;;;10.67;97.41;100759.77;1671676;85;21114;-75
2022/01/01 03:26:06;;;;;;;4.87;4.37;;;;;;;10.66;97.46;100765.44;1669674;84;21039;-75
2022/01/01 03:28:34;;;;;;;6.50;4.62;;;;;;;10.66;97.43;100764.12;1704939;84;21155;-77
2022/01/01 03:31:02;;;;;;;6.35;4.28;;;;;;;10.64;97.54;100763.34;1683403;84;21000;-75
2022/01/01 03:33:29;;;;;;;6.28;4.12;;;;;;;10.66;97.66;100772.45;1686065;84;21066;-74
2022/01/01 03:35:56;;;;;;;6.60;4.67;;;;;;;10.66;97.63;100769.83;1678259;85;21572;-75
2022/01/01 03:38:23;;;;;;;4.85;4.35;;;;;;;10.66;97.69;100764.12;1676362;85;21504;-79
2022/01/01 03:40:50;;;;;;;6.53;4.77;;;;;;;10.66;97.72;100763.28;1674886;85;21152;-76
2022/01/01 03:43:17;;;;;;;5.77;5.00;;;;;;;10.65;97.62;100766.81;1671889;85;21525;-75
2022/01/01 03:45:44;;;;;;;5.65;4.70;;;;;;;10.64;97.64;100772.52;1675537;84;21086;-76
2022/01/01 03:48:11;;;;;;;6.67;4.60;;;;;;;10.63;97.74;100766.85;1686001;85;21407;-75
2022/01/01 03:50:38;;;;;;;6.72;4.75;;;;;;;10.64;97.74;100772.52;1675507;85;21081;-75
2022/01/01 03:53:05;;;;;;;4.87;4.33;;;;;;;10.64;97.84;100775.14;1667777;86;21152;-75
2022/01/01 03:55:32;;;;;;;6.93;4.57;;;;;;;10.66;97.90;100759.34;1675319;84;21097;-76
2022/01/01 03:57:59;;;;;;;5.83;4.17;;;;;;;10.66;97.96;100778.55;1674236;85;21483;-76
2022/01/01 04:00:28;;;;;;;5.67;3.83;;;;;;;10.69;98.01;100774.97;1669468;85;21027;-75
2022/01/01 04:02:57;;;;;;;4.97;3.90;;;;;;;10.68;97.98;100781.98;1651294;85;21058;-75
2022/01/01 04:05:24;;;;;;;4.43;4.03;;;;;;;10.68;98.03;100792.94;1674563;85;21147;-76
2022/01/01 04:07:51;;;;;;;3.70;3.37;;;;;;;10.68;98.02;100796.87;1677098;85;21003;-77
2022/01/01 04:10:19;;;;;;;4.37;3.45;;;;;;;10.65;98.07;100792.58;1676964;85;21002;-76
2022/01/01 04:12:46;;;;;;;4.58;3.87;;;;;;;10.64;98.20;100783.44;1677840;84;21060;-76
2022/01/01 04:15:13;;;;;;;6.95;4.20;;;;;;;10.62;98.31;100792.67;1677204;84;21101;-76
2022/01/01 04:17:40;;;;;;;4.70;4.22;;;;;;;10.62;98.30;100788.74;1686406;85;22510;-75
2022/01/01 04:20:09;;;;;;;6.37;4.20;;;;;;;10.60;98.44;100794.48;1693020;84;21595;-75
2022/01/01 04:22:36;;;;;;;5.93;4.20;;;;;;;10.60;98.47;100793.16;1675500;84;21042;-77
2022/01/01 04:25:06;;;;;;;5.17;4.40;;;;;;;10.61;98.54;100799.27;1675339;85;20996;-77
2022/01/01 04:27:33;;;;;;;6.85;4.50;;;;;;;10.61;98.56;100800.11;1679632;84;21031;-77
2022/01/01 04:30:00;;;;;;;6.00;4.70;;;;;;;10.61;98.56;100803.19;1667956;85;21933;-75
2022/01/01 04:32:27;;;;;;;6.22;4.75;;;;;;;10.61;98.59;100811.05;1662490;86;21089;-75
2022/01/01 04:34:54;;;;;;;5.12;4.08;;;;;;;10.60;98.66;100804.96;1663730;86;21002;-77
2022/01/01 04:37:21;;;;;;;6.55;4.92;;;;;;;10.61;98.63;100818.46;1667904;86;21016;-76
2022/01/01 04:39:52;;;;;;;4.57;4.10;;;;;;;10.62;98.73;100821.97;1667310;86;21323;-77
2022/01/01 04:42:17;;;;;;;5.42;4.05;;;;;;;10.62;98.81;100818.89;1667027;86;21512;-75
2022/01/01 04:44:44;;;;;;;4.67;3.95;;;;;;;10.64;98.85;100825.38;1667734;86;21075;-76
2022/01/01 04:47:11;;;;;;;5.57;4.60;;;;;;;10.64;98.82;100830.62;1667313;86;21037;-76
2022/01/01 04:49:38;;;;;;;4.27;3.87;;;;;;;10.63;98.84;100828.45;1641511;86;20976;-76
2022/01/01 04:52:06;;;;;;;4.53;3.20;;;;;;;10.64;98.93;100828.88;1654294;86;21344;-75
2022/01/01 04:54:38;;;;;;;5.73;3.40;;;;;;;10.63;98.90;100837.63;1653321;84;21165;-76
2022/01/01 04:57:03;;;;;;;6.77;3.77;;;;;;;10.63;98.90;100836.78;1695720;84;21035;-76
2022/01/01 04:59:30;;;;;;;3.98;3.05;;;;;;;10.64;99.01;100838.48;1690215;84;21021;-76
2022/01/01 05:01:57;;;;;;;5.03;3.30;;;;;;;10.64;98.97;100831.92;1684779;84;21052;-76
2022/01/01 05:04:25;;;;;;;4.57;3.23;;;;;;;10.63;98.97;100836.32;1681651;84;21138;-75
2022/01/01 05:06:52;;;;;;;5.03;3.27;;;;;;;10.63;98.95;100839.40;1609702;89;21294;-75
2022/01/01 05:09:20;;;;;;;4.72;3.60;;;;;;;10.62;98.99;100842.48;1625321;87;21040;-75
2022/01/01 05:11:48;;;;;;;4.72;3.12;;;;;;;10.63;99.06;100848.12;1630461;87;21497;-75
2022/01/01 05:14:16;;;;;;;4.55;3.33;;;;;;;10.64;99.09;100853.78;1652380;86;21028;-75
2022/01/01 05:16:43;;;;;;;6.72;3.67;;;;;;;10.64;99.08;100855.52;1680921;84;21031;-76
2022/01/01 05:19:10;;;;;;;4.25;3.75;;;;;;;10.65;99.17;100850.70;1696507;84;21104;-76
2022/01/01 05:21:37;;;;;;;4.70;4.00;;;;;;;10.66;99.15;100857.20;1667653;84;21039;-75
2022/01/01 05:24:06;;;;;;;6.83;3.70;;;;;;;10.67;99.13;100855.46;1635141;87;21557;-76
2022/01/01 05:26:34;;;;;;;5.67;4.08;;;;;;;10.66;99.14;100857.20;1647759;86;21480;-77
2022/01/01 05:29:01;;;;;;;4.90;3.42;;;;;;;10.66;99.07;100859.81;1663836;85;21031;-75
2022/01/01 05:31:33;;;;;;;4.77;3.30;;;;;;;10.66;99.02;100860.28;1669900;85;21134;-76
2022/01/01 05:33:56;;;;;;;4.85;3.72;;;;;;;10.66;98.96;100850.64;1701143;83;21024;-77
2022/01/01 05:36:23;;;;;;;4.80;2.92;;;;;;;10.67;98.91;100860.70;1663732;85;21567;-75
2022/01/01 05:38:50;;;;;;;3.58;2.87;;;;;;;10.66;98.92;100862.44;1666320;85;21060;-77
2022/01/01 05:41:18;;;;;;;3.92;2.75;;;;;;;10.66;98.92;100864.20;1702006;83;21058;-76
2022/01/01 05:43:45;;;;;;;3.52;2.75;;;;;;;10.67;98.90;100877.74;1701832;84;21126;-76
2022/01/01 05:46:12;;;;;;;3.98;2.70;;;;;;;10.67;98.88;100878.59;1669510;85;21054;-76
2022/01/01 05:48:38;;;;;;;3.92;2.30;;;;;;;10.69;98.92;100878.53;1667034;86;21412;-77
2022/01/01 05:51:06;;;;;;;3.98;2.67;;;;;;;10.69;98.86;100881.16;1666162;85;21086;-77
2022/01/01 05:53:33;;;;;;;3.15;2.45;;;;;;;10.69;98.84;100881.16;1711401;83;21488;-76
2022/01/01 05:56:00;;;;;;;3.58;2.30;;;;;;;10.69;98.89;100885.94;1700950;84;21132;-76
2022/01/01 05:58:27;;;;;;;3.37;2.35;;;;;;;10.68;98.83;100886.00;1701388;83;21035;-77
2022/01/01 06:00:54;;;;;;;3.90;2.80;;;;;;;10.66;98.85;100896.98;1700666;83;20995;-76
2022/01/01 06:03:21;;;;;;;5.35;3.05;;;;;;;10.63;98.77;100893.14;1669847;86;21071;-76
2022/01/01 06:05:51;;;;;;;4.87;3.00;;;;;;;10.61;98.83;100897.56;1662815;85;21080;-77
2022/01/01 06:08:18;;;;;;;6.00;3.30;;;;;;;10.59;98.97;100893.69;1702410;84;21085;-77
2022/01/01 06:10:45;;;;;;;6.35;3.50;;;;;;;10.57;99.01;100894.64;1724648;83;21071;-77
2022/01/01 06:13:12;;;;;;;5.42;3.92;;;;;;;10.55;99.10;100895.98;1727146;83;21031;-75
2022/01/01 06:15:41;;;;;;;5.30;3.52;;;;;;;10.53;99.13;100899.12;1713661;83;21062;-75
2022/01/01 06:18:08;;;;;;;10.20;4.55;;;;;;;10.52;99.24;100909.63;1672490;84;21059;-75
2022/01/01 06:20:35;;;;;;;5.20;4.13;;;;;;;10.53;99.30;100913.53;1702690;83;21659;-76
2022/01/01 06:23:06;;;;;;;5.42;4.22;;;;;;;10.52;99.36;100909.17;1670215;85;21533;-75
2022/01/01 06:25:35;;;;;;;6.70;4.28;;;;;;;10.54;99.49;100911.31;1671053;84;21015;-75
2022/01/01 06:28:03;;;;;;;6.70;4.27;;;;;;;10.53;99.45;100919.20;1670290;84;21611;-74
2022/01/01 06:30:33;;;;;;;6.78;4.97;;;;;;;10.53;99.43;100912.22;1702679;83;21129;-77
2022/01/01 06:33:02;;;;;;;10.20;5.47;;;;;;;10.54;99.50;100924.87;1699261;84;21234;-80
2022/01/01 06:35:29;;;;;;;7.55;4.50;;;;;;;10.54;99.50;100919.17;1696811;83;20939;-76
2022/01/01 06:37:56;;;;;;;7.13;5.10;;;;;;;10.54;99.46;100929.66;1668333;84;21551;-76
2022/01/01 06:40:23;;;;;;;6.90;4.70;;;;;;;10.55;99.46;100934.44;1699561;82;21064;-75
2022/01/01 06:42:50;;;;;;;8.63;4.60;;;;;;;10.54;99.48;100934.90;1701827;82;21016;-76
2022/01/01 06:45:17;;;;;;;7.05;4.85;;;;;;;10.54;99.38;100940.59;1701683;82;21109;-76
2022/01/01 06:47:44;;;;;;;6.43;4.90;;;;;;;10.54;99.43;100935.36;1701561;84;21079;-76
2022/01/01 06:50:11;;;;;;;7.70;4.90;;;;;;;10.54;99.37;100948.46;1701872;83;21513;-75
2022/01/01 06:52:44;;;;;;;7.37;5.22;;;;;;;10.52;99.29;100944.55;1702254;83;21052;-75
2022/01/01 06:55:12;;;;;;;9.23;6.17;;;;;;;10.52;99.32;100946.33;1700181;82;21012;-76
2022/01/01 06:57:41;;;;;;;8.53;5.87;;;;;;;10.51;99.36;100951.17;1702158;83;21114;-75
2022/01/01 07:00:10;;;;;;;9.28;5.70;;;;;;;10.52;99.36;100952.88;1701475;82;21684;-77
2022/01/01 07:02:44;;;;;;;9.43;5.93;;;;;;;10.53;99.39;100952.84;1702037;82;21047;-76
2022/01/01 07:05:13;;;;;;;8.18;5.33;;;;;;;10.54;99.34;100951.08;1697785;82;21509;-76
2022/01/01 07:07:41;;;;;;;8.75;5.70;;;;;;;10.54;99.40;100957.63;1700234;83;21312;-76
2022/01/01 07:10:12;;;;;;;7.43;5.73;;;;;;;10.54;99.32;100952.39;1702953;82;21845;-76
2022/01/01 07:12:38;;;;;;;;;;;;;;;10.53;99.31;100965.07;1702783;84;21087;-76
2022/01/01 07:15:07;;;;;;;10.28;6.08;;;;;;;10.54;99.28;100968.13;1706048;83;20183;-76
2022/01/01 07:17:34;;;;;;;12.25;6.47;;;;;;;10.52;99.30;100978.63;1700989;83;21124;-76
2022/01/01 07:20:01;;;;;;;11.97;7.08;;;;;;;10.52;99.26;100974.70;1702003;82;21535;-76
2022/01/01 07:22:28;;;;;;;9.23;6.10;;;;;;;10.54;99.36;100978.60;1700556;83;21124;-76
2022/01/01 07:24:55;;;;;;;13.58;7.67;;;;;;;10.55;99.34;100979.00;1703067;83;21004;-76
2022/01/01 07:27:23;;;;;;;11.20;7.03;;;;;;;10.57;99.32;100981.14;1701951;83;21087;-76
2022/01/01 07:29:56;;;;;;;14.18;6.85;;;;;;;10.57;99.29;100985.07;1697285;83;21104;-77
2022/01/01 07:32:24;;;;;;;13.03;7.17;;;;;;;10.57;99.25;100988.55;1701105;83;21084;-76
2022/01/01 07:34:51;;;;;;;15.50;8.25;;;;;;;10.59;99.27;100991.14;1690346;82;21213;-77
2022/01/01 07:37:18;;;;;;;13.73;7.30;;;;;;;10.61;99.28;100990.63;1701336;83;21066;-77
2022/01/01 07:39:45;;;;;;;11.67;7.37;;;;;;;10.60;99.33;100983.21;1701206;83;22166;-76
2022/01/01 07:42:12;;;;;;;10.95;6.92;;;;;;;10.60;99.19;100988.91;1670526;85;21110;-78
2022/01/01 07:44:41;;;;;;;12.00;7.37;;;;;;;10.60;99.31;100992.39;1700882;83;21022;-77
2022/01/01 07:47:08;;;;;;;12.50;7.70;;;;;;;10.60;99.29;100996.32;1701906;84;21965;-77
2022/01/01 07:49:36;;;;;;;13.17;6.97;;;;;;;10.62;99.26;101003.70;1698248;84;21042;-78
2022/01/01 07:52:04;;;;;;;11.68;7.47;;;;;;;10.63;99.40;100995.38;1708690;83;21628;-78
2022/01/01 07:54:30;;;;;;;11.78;7.53;;;;;;;10.64;99.39;101003.64;1707324;82;21082;-78
2022/01/01 07:56:57;;;;;;;12.10;7.65;;;;;;;10.65;99.37;101007.55;1691574;83;21063;-80
2022/01/01 07:59:24;;;;;;;13.83;8.00;;;;;;;10.66;99.40;101010.56;1692628;83;21137;-81
2022/01/01 08:01:51;;;;;;;11.28;7.45;;;;;;;10.67;99.41;101018.00;1703656;83;21502;-78
2022/01/01 08:07:04;;;;;;;12.47;7.57;;;;;;;10.68;99.32;101017.09;1708754;83;21590;-79
2022/01/01 08:09:31;;;;;;;13.20;7.22;;;;;;;10.68;99.35;101014.47;1705839;83;21032;-79
2022/01/01 08:11:57;;;;;;;14.75;6.95;;;;;;;10.69;99.27;101015.72;1711114;83;21134;-81
2022/01/01 08:14:24;;;;;;;12.50;7.10;;;;;;;10.70;99.26;101021.39;1687676;83;21015;-78
2022/01/01 08:17:02;;;;;;;13.03;6.92;;;;;;;10.73;99.23;101029.63;1697534;84;21258;-78
2022/01/01 08:19:29;;;;;;;11.12;6.45;;;;;;;10.75;99.21;101037.43;1689611;83;21043;-79
2022/01/01 08:21:57;;;;;;;10.98;6.78;;;;;;;10.77;99.22;101042.19;1693452;84;21031;-78
2022/01/01 08:24:25;;;;;;;12.88;7.97;;;;;;;10.79;99.22;101036.00;1695958;83;21520;-77
2022/01/01 08:26:52;;;;;;;12.30;7.65;;;;;;;10.79;99.17;101038.62;1707812;83;21126;-78
2022/01/01 08:29:19;;;;;;;13.40;7.95;;;;;;;10.80;99.18;101037.71;1700490;83;21116;-78
2022/01/01 08:31:46;;;;;;;10.90;6.33;;;;;;;10.81;99.10;101036.83;1695477;83;21104;-78
2022/01/01 08:34:13;;;;;;;12.05;6.15;;;;;;;10.82;99.05;101042.47;1696720;83;21132;-78
2022/01/01 08:36:40;;;;;;;10.93;6.62;;;;;;;10.83;99.04;101043.33;1693569;83;21339;-78
2022/01/01 08:39:08;;;;;;;11.50;6.05;;;;;;;10.84;99.00;101046.38;1705271;83;21042;-78
2022/01/01 08:41:35;;;;;;;10.17;6.13;;;;;;;10.86;98.92;101053.30;1694144;84;21121;-78
2022/01/01 08:44:03;;;;;;;9.00;5.72;;;;;;;10.86;98.83;101050.68;1694487;83;21041;-79
2022/01/01 08:46:29;;;;;;;10.88;5.62;;;;;;;10.85;98.75;101052.88;1694124;83;21285;-78
2022/01/01 08:48:56;;;;;;;10.78;5.67;;;;;;;10.84;98.69;101052.93;1699036;83;21120;-80
2022/01/01 08:51:23;;;;;;;8.88;5.60;;;;;;;10.80;98.73;101061.31;1700445;82;21065;-80
2022/01/01 08:53:50;;;;;;;10.90;5.78;;;;;;;10.73;98.68;101049.75;1699968;83;21047;-78
2022/01/01 08:56:18;;;;;;;9.30;5.45;;;;;;;10.68;98.68;101057.27;1698850;83;21086;-78
2022/01/01 08:58:46;;;;;;;7.67;5.25;;;;;;;10.63;98.79;101056.98;1699526;83;21082;-80
2022/01/01 09:01:13;;;;;;;8.70;5.70;;;;;;;10.62;98.90;101060.52;1699853;83;21144;-80
2022/01/01 09:03:41;;;;;;;8.97;5.30;;;;;;;10.59;98.99;101056.67;1694578;83;21072;-80
2022/01/01 09:06:09;;;;;;;10.58;5.87;;;;;;;10.56;99.03;101063.28;1694706;83;21070;-80
2022/01/01 09:08:40;;;;;;;9.63;6.12;;;;;;;10.56;99.21;101069.83;1694061;83;21092;-81
2022/01/01 09:11:12;;;;;;;10.82;6.20;;;;;;;10.55;99.37;101072.91;1693068;83;21572;-81
2022/01/01 09:13:43;;;;;;;9.15;6.20;;;;;;;10.55;99.45;101082.08;1693206;84;21135;-79
2022/01/01 09:16:16;;;;;;;11.20;6.90;;;;;;;10.54;99.50;101080.38;1695756;83;20956;-81
2022/01/01 09:18:46;;;;;;;10.00;6.57;;;;;;;10.52;99.49;101082.16;1695503;83;21049;-78
2022/01/01 09:21:14;;;;;;;8.43;6.00;;;;;;;10.51;99.51;101082.22;1694243;84;21569;-79
2022/01/01 09:23:42;;;;;;;9.80;6.47;;;;;;;10.49;99.71;101081.80;1695369;84;21662;-78
2022/01/01 09:26:09;;;;;;;9.33;6.58;;;;;;;10.47;99.74;101091.48;1700485;82;21100;-79
2022/01/01 09:28:36;;;;;;;10.88;7.53;;;;;;;10.47;99.79;101095.83;1700591;83;21536;-79
2022/01/01 09:31:03;;;;;;;11.08;7.78;;;;;;;10.47;99.81;101099.34;1709359;83;21015;-75
2022/01/01 09:33:32;;;;;;;12.45;7.83;;;;;;;10.48;99.93;101100.20;1707182;82;21019;-78
2022/01/01 09:36:02;;;;;;;11.97;7.85;;;;;;;10.48;99.99;101098.89;1706831;82;21512;-77
2022/01/01 09:38:30;;;;;;;14.00;8.15;;;;;;;10.51;99.99;101101.42;1706132;82;21971;-77
2022/01/01 09:40:59;;;;;;;12.37;8.13;;;;;;;10.51;99.96;101097.49;1705976;82;21693;-77
2022/01/01 09:43:29;;;;;;;13.70;7.97;;;;;;;10.51;99.97;101107.98;1707664;82;21094;-77
2022/01/01 09:45:58;;;;;;;15.63;8.08;;;;;;;10.53;100.00;101105.30;1707250;82;21055;-77
2022/01/01 09:48:26;;;;;;;14.23;8.13;;;;;;;10.54;100.00;101109.20;1706511;83;21065;-77
2022/01/01 09:50:59;;;;;;;12.95;7.37;;;;;;;10.56;100.00;101106.53;1710215;82;21160;-78
2022/01/01 09:53:28;;;;;;;11.08;7.50;;;;;;;10.58;100.00;101110.83;1720242;82;20986;-78
2022/01/01 09:55:57;;;;;;;14.75;7.45;;;;;;;10.61;100.00;101112.06;1709977;83;21015;-78
2022/01/01 09:58:31;;;;;;;12.95;7.55;;;;;;;10.62;100.00;101117.73;1711037;83;21544;-77
2022/01/01 10:00:58;;;;;;;11.70;7.10;;;;;;;10.63;100.00;101119.45;1711614;82;21073;-81
2022/01/01 10:03:47;;;;;;;13.10;7.67;;;;;;;10.62;100.00;101113.80;1721190;82;21114;-77
2022/01/01 10:06:20;;;;;;;13.47;7.07;;;;;;;10.62;100.00;101125.60;1699300;82;21070;-76
2022/01/01 10:09:02;;;;;;;12.65;7.47;;;;;;;10.62;100.00;101129.53;1725671;83;21063;-77
2022/01/01 10:11:33;;;;;;;14.00;7.47;;;;;;;10.62;99.99;101130.84;1729191;83;22168;-77
2022/01/01 10:14:07;;;;;;;14.23;8.00;;;;;;;10.62;99.99;101137.86;1729054;83;21508;-76
2022/01/01 10:16:47;;;;;;;11.30;6.87;;;;;;;10.62;100.00;101135.23;1729092;83;21111;-76
2022/01/01 10:19:14;;;;;;;13.18;7.95;;;;;;;10.64;100.00;101142.59;1728954;83;21107;-76
2022/01/01 10:21:42;;;;;;;13.70;7.50;;;;;;;10.65;100.00;101143.88;1729596;81;21063;-77
2022/01/01 10:24:14;;;;;;;11.75;7.12;;;;;;;10.68;100.00;101147.72;1729329;81;21008;-76
2022/01/01 10:29:32;;;;;;;12.70;7.20;;;;;;;10.72;100.00;101148.50;1725776;83;21663;-76
2022/01/01 10:32:11;;;;;;;13.48;7.47;;;;;;;10.75;100.00;101146.25;1714265;83;21040;-76
2022/01/01 10:34:44;;;;;;;14.38;7.75;;;;;;;10.78;100.00;101144.86;1714206;83;21565;-76
2022/01/01 10:37:14;;;;;;;13.98;7.55;;;;;;;10.82;100.00;101144.75;1714144;83;21071;-76
2022/01/01 10:39:52;;;;;;;14.07;7.45;;;;;;;10.87;100.00;101142.87;1714155;83;21055;-76
2022/01/01 10:42:20;;;;;;;12.73;7.08;;;;;;;10.93;100.00;101144.01;1714050;83;22013;-76
2022/01/01 10:44:51;;;;;;;12.65;7.22;;;;;;;11.02;100.00;101138.97;1714040;83;21114;-76
2022/01/01 10:47:26;;;;;;;13.05;7.55;;;;;;;11.10;100.00;101144.86;1714184;83;21107;-76
2022/01/01 10:50:14;;;;;;;16.15;7.08;;;;;;;11.15;100.00;101150.84;1713334;83;21063;-76
2022/01/01 10:52:28;;;;;;;14.30;7.20;;;;;;;11.20;99.92;101146.80;1710847;83;21058;-76
2022/01/01 10:55:01;;;;;;;12.70;7.25;;;;;;;11.24;99.86;101142.31;1709759;83;21205;-76
2022/01/01 10:57:39;;;;;;;15.85;7.55;;;;;;;11.27;99.78;101145.70;1687199;84;21020;-76
2022/01/01 11:00:17;;;;;;;13.65;6.62;;;;;;;11.30;99.55;101146.93;1680050;85;21461;-76
2022/01/01 11:02:53;;;;;;;11.97;7.10;;;;;;;11.32;99.58;101147.75;1679415;85;21099;-75
2022/01/01 11:05:32;;;;;;;15.95;7.30;;;;;;;11.34;99.47;101142.48;1680110;84;21039;-76
2022/01/01 11:08:02;;;;;;;11.90;6.63;;;;;;;11.35;99.31;101143.73;1680093;85;21148;-76
2022/01/01 11:10:29;;;;;;;11.25;6.75;;;;;;;11.36;99.22;101149.83;1679938;85;21495;-76
2022/01/01 11:12:59;;;;;;;18.35;7.05;;;;;;;11.38;99.18;101147.58;1679795;85;21482;-76
2022/01/01 11:15:28;;;;;;;17.77;7.20;;;;;;;11.38;99.01;101147.58;1680204;85;21016;-76
2022/01/01 11:17:56;;;;;;;14.07;7.72;;;;;;;11.40;98.94;101155.42;1679765;85;21586;-76
2022/01/01 11:20:33;;;;;;;11.12;6.80;;;;;;;11.41;98.90;101148.40;1679901;85;21864;-76
2022/01/01 11:23:08;;;;;;;15.83;7.65;;;;;;;11.42;98.87;101155.36;1679776;85;21063;-76
2022/01/01 11:25:38;;;;;;;14.55;7.80;;;;;;;11.42;98.75;101161.92;1679849;85;21083;-76
2022/01/01 11:28:10;;;;;;;15.10;7.15;;;;;;;11.43;98.73;101161.03;1679836;85;21024;-76
2022/01/01 11:30:51;;;;;;;18.48;11.15;;;;;;;11.44;98.73;101167.54;1687544;83;21090;-76
2022/01/01 11:33:22;;;;;;;13.25;8.05;;;;;;;11.45;98.56;101160.55;1692807;84;21935;-76
2022/01/01 11:35:56;;;;;;;11.95;6.65;;;;;;;11.43;98.52;101169.77;1689845;84;21011;-76